Airfield :
LOGIN :

Register | Disclaimer

   EN    FR    IT 

 










Legend :    VFR   Marginal VFR   IFR   Intensive IFR   Very Intensive IFR
Visi :
Ceiling :
>= 8 km
>= 3000ft
5 to 8 km
1000 to 3000 ft
1500m to 5 km
500 to 1000 ft
800 to 1500m
200 to 500 ft
< 800m
< 200 ft
Symbols :   Thunderstorms  Fog  Heavy snow  Heavy precipitations  Wind > 20 kt
SIGMETs :     Misc.  Thunderstorms  Icing  Turbulence  Mountain Waves  Volcanic Ashes






- Airport Elevation : 11 ft
- IATA code : SXL


EISG - Sligo

CURRENT METAR :
  • 121930Z 20004KT 150V240 9999 BKN010 OVC016 16/14 Q1024

EXPIRED METARs :
  • 121900Z 20005KT 150V230 9999 FEW009 BKN019 OVC025 16/14 Q1024
  • 121830Z 20005KT 9999 BKN013 OVC018 16/14 Q1024
  • 121800Z 21006KT 170V230 9999 OVC018 17/14 Q1024
  • 121730Z 22006KT 8000 OVC018 17/14 Q1024

TAF AMD TAF EISG
Valid from the 12 at 18:00 until the 13 at 03:00 UTC


121843Z 1218/1303 21005KT 9999 SCT010 BKN020
TEMPO 1218/1303 -DZ BKN012
PROB40
TEMPO 1218/1303 2000 BR BKN004



MET'MAP, your aeronautical weather chart ! - Copyright ORBIFLY December 2007 - Disclaimer

ORBIFLY MET'MAP TEAM :

Programming & Development : Alexandra Zaïnal
Concept & original design : Baudouin d'Aumeries
Assistance for programming : Marc-Olivier Méhu
Technical & hardware support : Manuel Goepfert

Contact : metmap@orbifly.com




SOURCES & CREDITS :

   NOAA